sensor_id;sensor_type;location;lat;lon;timestamp;pressure;altitude;pressure_sealevel;temperature;humidity
81961;BME280;71462;50.650;6.888;2024-03-17T00:00:26;100516.13;;;7.28;50.97
81961;BME280;71462;50.650;6.888;2024-03-17T00:02:51;100516.22;;;7.33;50.69
81961;BME280;71462;50.650;6.888;2024-03-17T00:05:18;100517.84;;;7.17;50.68
81961;BME280;71462;50.650;6.888;2024-03-17T00:07:45;100514.59;;;6.82;51.65
81961;BME280;71462;50.650;6.888;2024-03-17T00:10:12;100516.94;;;6.50;53.29
81961;BME280;71462;50.650;6.888;2024-03-17T00:12:40;100511.28;;;6.75;52.18
81961;BME280;71462;50.650;6.888;2024-03-17T00:15:08;100515.25;;;6.89;51.85
81961;BME280;71462;50.650;6.888;2024-03-17T00:17:34;100507.19;;;7.01;51.00
81961;BME280;71462;50.650;6.888;2024-03-17T00:20:01;100503.25;;;7.03;51.31
81961;BME280;71462;50.650;6.888;2024-03-17T00:22:34;100502.09;;;6.99;51.10
81961;BME280;71462;50.650;6.888;2024-03-17T00:25:07;100503.59;;;7.07;50.84
81961;BME280;71462;50.650;6.888;2024-03-17T00:27:34;100500.34;;;6.88;51.25
81961;BME280;71462;50.650;6.888;2024-03-17T00:30:05;100499.28;;;6.89;51.51
81961;BME280;71462;50.650;6.888;2024-03-17T00:32:35;100502.59;;;6.96;51.07
81961;BME280;71462;50.650;6.888;2024-03-17T00:35:03;100499.53;;;7.04;51.04
81961;BME280;71462;50.650;6.888;2024-03-17T00:37:30;100502.59;;;6.96;51.35
81961;BME280;71462;50.650;6.888;2024-03-17T00:39:57;100500.19;;;6.95;51.24
81961;BME280;71462;50.650;6.888;2024-03-17T00:42:24;100489.31;;;6.96;51.36
81961;BME280;71462;50.650;6.888;2024-03-17T00:44:51;100490.03;;;6.91;51.27
81961;BME280;71462;50.650;6.888;2024-03-17T00:47:17;100484.03;;;6.68;52.11
81961;BME280;71462;50.650;6.888;2024-03-17T00:49:44;100483.69;;;6.47;52.68
81961;BME280;71462;50.650;6.888;2024-03-17T00:52:09;100487.84;;;6.43;52.93
81961;BME280;71462;50.650;6.888;2024-03-17T00:54:36;100483.06;;;6.57;52.56
81961;BME280;71462;50.650;6.888;2024-03-17T00:57:02;100484.50;;;6.65;52.32
81961;BME280;71462;50.650;6.888;2024-03-17T00:59:31;100478.22;;;6.71;52.30
81961;BME280;71462;50.650;6.888;2024-03-17T01:01:56;100478.09;;;6.77;51.86
81961;BME280;71462;50.650;6.888;2024-03-17T01:04:23;100463.69;;;6.73;52.15
81961;BME280;71462;50.650;6.888;2024-03-17T01:06:49;100470.75;;;6.68;52.81
81961;BME280;71462;50.650;6.888;2024-03-17T01:09:16;100471.06;;;6.71;52.55
81961;BME280;71462;50.650;6.888;2024-03-17T01:11:41;100475.72;;;6.64;53.39
81961;BME280;71462;50.650;6.888;2024-03-17T01:14:09;100465.03;;;6.59;53.32
81961;BME280;71462;50.650;6.888;2024-03-17T01:16:36;100466.47;;;6.67;53.38
81961;BME280;71462;50.650;6.888;2024-03-17T01:19:03;100464.38;;;6.69;53.15
81961;BME280;71462;50.650;6.888;2024-03-17T01:21:28;100458.09;;;6.58;53.68
81961;BME280;71462;50.650;6.888;2024-03-17T01:23:55;100453.59;;;6.58;53.69
81961;BME280;71462;50.650;6.888;2024-03-17T01:26:21;100455.41;;;6.86;52.92
81961;BME280;71462;50.650;6.888;2024-03-17T01:28:49;100451.78;;;6.93;52.81
81961;BME280;71462;50.650;6.888;2024-03-17T01:31:15;100446.03;;;7.01;52.68
81961;BME280;71462;50.650;6.888;2024-03-17T01:33:43;100432.84;;;7.06;52.11
81961;BME280;71462;50.650;6.888;2024-03-17T01:36:09;100436.63;;;7.10;52.15
81961;BME280;71462;50.650;6.888;2024-03-17T01:38:36;100433.47;;;6.96;52.30
81961;BME280;71462;50.650;6.888;2024-03-17T01:41:01;100427.13;;;6.97;52.55
81961;BME280;71462;50.650;6.888;2024-03-17T01:43:28;100432.22;;;6.82;52.38
81961;BME280;71462;50.650;6.888;2024-03-17T01:45:54;100421.34;;;6.83;52.69
81961;BME280;71462;50.650;6.888;2024-03-17T01:48:20;100423.50;;;6.86;52.39
81961;BME280;71462;50.650;6.888;2024-03-17T01:50:48;100423.34;;;6.93;52.14
81961;BME280;71462;50.650;6.888;2024-03-17T01:53:16;100417.03;;;6.99;51.91
81961;BME280;71462;50.650;6.888;2024-03-17T01:55:42;100413.91;;;7.02;51.87
81961;BME280;71462;50.650;6.888;2024-03-17T01:58:09;100417.53;;;6.96;51.73
81961;BME280;71462;50.650;6.888;2024-03-17T02:00:36;100413.13;;;6.85;52.01
81961;BME280;71462;50.650;6.888;2024-03-17T02:03:04;100425.69;;;6.89;52.09
81961;BME280;71462;50.650;6.888;2024-03-17T02:05:31;100417.38;;;6.86;52.35
81961;BME280;71462;50.650;6.888;2024-03-17T02:08:00;100431.94;;;6.67;53.00
81961;BME280;71462;50.650;6.888;2024-03-17T02:10:27;100431.59;;;6.18;54.29
81961;BME280;71462;50.650;6.888;2024-03-17T02:12:54;100427.22;;;6.40;53.48
81961;BME280;71462;50.650;6.888;2024-03-17T02:15:20;100426.75;;;6.15;53.89
81961;BME280;71462;50.650;6.888;2024-03-17T02:17:47;100426.97;;;6.25;53.38
81961;BME280;71462;50.650;6.888;2024-03-17T02:20:12;100419.97;;;6.36;52.64
81961;BME280;71462;50.650;6.888;2024-03-17T02:22:41;100422.69;;;6.52;52.33
81961;BME280;71462;50.650;6.888;2024-03-17T02:25:07;100424.22;;;6.65;51.90
81961;BME280;71462;50.650;6.888;2024-03-17T02:27:34;100419.97;;;6.81;51.97
81961;BME280;71462;50.650;6.888;2024-03-17T02:29:59;100425.44;;;6.91;51.43
81961;BME280;71462;50.650;6.888;2024-03-17T02:32:26;100433.97;;;6.93;51.51
81961;BME280;71462;50.650;6.888;2024-03-17T02:34:53;100427.69;;;6.99;51.41
81961;BME280;71462;50.650;6.888;2024-03-17T02:37:20;100421.06;;;7.02;51.36
81961;BME280;71462;50.650;6.888;2024-03-17T02:39:47;100419.31;;;7.07;50.57
81961;BME280;71462;50.650;6.888;2024-03-17T02:42:14;100410.59;;;6.95;51.11
81961;BME280;71462;50.650;6.888;2024-03-17T02:44:41;100404.50;;;7.11;50.45
81961;BME280;71462;50.650;6.888;2024-03-17T02:47:08;100404.88;;;7.20;49.92
81961;BME280;71462;50.650;6.888;2024-03-17T02:49:35;100408.25;;;7.15;49.99
81961;BME280;71462;50.650;6.888;2024-03-17T02:52:06;100409.06;;;6.99;50.52
81961;BME280;71462;50.650;6.888;2024-03-17T02:54:35;100401.75;;;7.06;49.75
81961;BME280;71462;50.650;6.888;2024-03-17T02:57:03;100397.88;;;6.97;50.04
81961;BME280;71462;50.650;6.888;2024-03-17T02:59:31;100397.56;;;7.10;49.77
81961;BME280;71462;50.650;6.888;2024-03-17T03:01:56;100405.13;;;6.68;50.46
81961;BME280;71462;50.650;6.888;2024-03-17T03:04:23;100411.56;;;6.55;51.06
81961;BME280;71462;50.650;6.888;2024-03-17T03:06:50;100406.34;;;6.44;51.33
81961;BME280;71462;50.650;6.888;2024-03-17T03:09:17;100410.41;;;6.35;52.01
81961;BME280;71462;50.650;6.888;2024-03-17T03:11:51;100409.03;;;6.32;51.98
81961;BME280;71462;50.650;6.888;2024-03-17T03:14:20;100408.06;;;6.38;51.18
81961;BME280;71462;50.650;6.888;2024-03-17T03:16:47;100399.34;;;6.54;51.02
81961;BME280;71462;50.650;6.888;2024-03-17T03:19:15;100404.16;;;6.57;50.66
81961;BME280;71462;50.650;6.888;2024-03-17T03:21:41;100405.41;;;6.38;51.10
81961;BME280;71462;50.650;6.888;2024-03-17T03:24:08;100400.38;;;6.53;50.79
81961;BME280;71462;50.650;6.888;2024-03-17T03:26:35;100399.81;;;6.68;50.31
81961;BME280;71462;50.650;6.888;2024-03-17T03:29:02;100400.72;;;6.74;50.65
81961;BME280;71462;50.650;6.888;2024-03-17T03:31:31;100404.50;;;6.78;50.33
81961;BME280;71462;50.650;6.888;2024-03-17T03:33:58;100401.44;;;6.86;50.28
81961;BME280;71462;50.650;6.888;2024-03-17T03:36:27;100401.03;;;6.77;50.70
81961;BME280;71462;50.650;6.888;2024-03-17T03:38:54;100402.59;;;6.73;50.66
81961;BME280;71462;50.650;6.888;2024-03-17T03:41:23;100398.38;;;6.44;51.74
81961;BME280;71462;50.650;6.888;2024-03-17T03:43:50;100393.22;;;6.54;51.75
81961;BME280;71462;50.650;6.888;2024-03-17T03:46:17;100392.72;;;6.57;51.86
81961;BME280;71462;50.650;6.888;2024-03-17T03:48:46;100392.56;;;6.64;51.49
81961;BME280;71462;50.650;6.888;2024-03-17T03:51:13;100393.06;;;6.60;51.25
81961;BME280;71462;50.650;6.888;2024-03-17T03:53:40;100392.50;;;6.58;51.28
81961;BME280;71462;50.650;6.888;2024-03-17T03:56:08;100390.63;;;6.42;51.79
81961;BME280;71462;50.650;6.888;2024-03-17T03:58:36;100387.03;;;6.20;52.75
81961;BME280;71462;50.650;6.888;2024-03-17T04:01:04;100379.78;;;6.15;52.85
81961;BME280;71462;50.650;6.888;2024-03-17T04:03:31;100381.00;;;5.96;53.69
81961;BME280;71462;50.650;6.888;2024-03-17T04:06:04;100381.44;;;5.76;54.47
81961;BME280;71462;50.650;6.888;2024-03-17T04:08:31;100379.06;;;5.51;55.10
81961;BME280;71462;50.650;6.888;2024-03-17T04:10:58;100383.94;;;5.83;53.84
81961;BME280;71462;50.650;6.888;2024-03-17T04:13:26;100391.19;;;5.87;53.56
81961;BME280;71462;50.650;6.888;2024-03-17T04:15:53;100386.84;;;5.81;54.32
81961;BME280;71462;50.650;6.888;2024-03-17T04:18:22;100388.91;;;5.79;54.13
81961;BME280;71462;50.650;6.888;2024-03-17T04:20:50;100383.69;;;5.84;54.47
81961;BME280;71462;50.650;6.888;2024-03-17T04:23:19;100383.09;;;5.94;53.93
81961;BME280;71462;50.650;6.888;2024-03-17T04:25:47;100380.66;;;5.92;53.59
81961;BME280;71462;50.650;6.888;2024-03-17T04:28:14;100374.63;;;5.68;53.78
81961;BME280;71462;50.650;6.888;2024-03-17T04:30:41;100376.69;;;5.78;53.61
81961;BME280;71462;50.650;6.888;2024-03-17T04:33:08;100360.06;;;5.31;54.75
81961;BME280;71462;50.650;6.888;2024-03-17T04:35:35;100360.88;;;5.43;54.84
81961;BME280;71462;50.650;6.888;2024-03-17T04:38:03;100356.09;;;5.57;54.50
81961;BME280;71462;50.650;6.888;2024-03-17T04:40:32;100358.50;;;5.58;54.42
81961;BME280;71462;50.650;6.888;2024-03-17T04:42:59;100354.53;;;5.73;53.78
81961;BME280;71462;50.650;6.888;2024-03-17T04:45:26;100350.72;;;5.80;53.15
81961;BME280;71462;50.650;6.888;2024-03-17T04:47:53;100362.81;;;5.88;53.43
81961;BME280;71462;50.650;6.888;2024-03-17T04:50:20;100355.66;;;5.88;53.18
81961;BME280;71462;50.650;6.888;2024-03-17T04:52:47;100351.53;;;5.81;53.62
81961;BME280;71462;50.650;6.888;2024-03-17T04:55:15;100353.06;;;5.77;53.34
81961;BME280;71462;50.650;6.888;2024-03-17T04:57:44;100350.50;;;5.70;52.28
81961;BME280;71462;50.650;6.888;2024-03-17T05:00:12;100347.81;;;5.53;52.53
81961;BME280;71462;50.650;6.888;2024-03-17T05:02:39;100344.59;;;5.51;53.60
81961;BME280;71462;50.650;6.888;2024-03-17T05:05:06;100347.78;;;5.65;53.48
81961;BME280;71462;50.650;6.888;2024-03-17T05:07:35;100342.31;;;5.72;52.81
81961;BME280;71462;50.650;6.888;2024-03-17T05:10:03;100340.63;;;5.65;52.86
81961;BME280;71462;50.650;6.888;2024-03-17T05:12:31;100347.25;;;5.51;52.84
81961;BME280;71462;50.650;6.888;2024-03-17T05:14:59;100340.44;;;5.55;53.41
81961;BME280;71462;50.650;6.888;2024-03-17T05:17:26;100342.06;;;5.45;53.75
81961;BME280;71462;50.650;6.888;2024-03-17T05:19:52;100333.75;;;5.53;53.75
81961;BME280;71462;50.650;6.888;2024-03-17T05:22:19;100341.47;;;5.43;54.28
81961;BME280;71462;50.650;6.888;2024-03-17T05:24:46;100338.50;;;5.39;53.70
81961;BME280;71462;50.650;6.888;2024-03-17T05:27:14;100337.81;;;5.44;53.85
81961;BME280;71462;50.650;6.888;2024-03-17T05:29:41;100340.34;;;5.39;53.40
81961;BME280;71462;50.650;6.888;2024-03-17T05:32:09;100340.94;;;5.29;53.98
81961;BME280;71462;50.650;6.888;2024-03-17T05:34:37;100343.97;;;5.21;54.31
81961;BME280;71462;50.650;6.888;2024-03-17T05:37:04;100346.75;;;5.14;55.30
81961;BME280;71462;50.650;6.888;2024-03-17T05:39:31;100336.25;;;5.19;54.22
81961;BME280;71462;50.650;6.888;2024-03-17T05:41:58;100340.63;;;5.14;54.42
81961;BME280;71462;50.650;6.888;2024-03-17T05:44:25;100349.16;;;4.92;55.58
81961;BME280;71462;50.650;6.888;2024-03-17T05:46:55;100343.38;;;5.07;55.06
81961;BME280;71462;50.650;6.888;2024-03-17T05:49:24;100345.22;;;5.18;54.65
81961;BME280;71462;50.650;6.888;2024-03-17T05:51:52;100342.34;;;5.20;54.22
81961;BME280;71462;50.650;6.888;2024-03-17T05:54:19;100344.75;;;5.21;55.11
81961;BME280;71462;50.650;6.888;2024-03-17T05:56:46;100344.06;;;5.26;54.81
81961;BME280;71462;50.650;6.888;2024-03-17T05:59:12;100348.81;;;5.12;55.55
81961;BME280;71462;50.650;6.888;2024-03-17T06:01:39;100353.97;;;5.07;55.35
81961;BME280;71462;50.650;6.888;2024-03-17T06:04:06;100348.13;;;5.17;55.37
81961;BME280;71462;50.650;6.888;2024-03-17T06:06:36;100342.13;;;5.21;55.50
81961;BME280;71462;50.650;6.888;2024-03-17T06:09:03;100342.91;;;5.22;55.63
81961;BME280;71462;50.650;6.888;2024-03-17T06:11:30;100343.22;;;5.37;55.05
81961;BME280;71462;50.650;6.888;2024-03-17T06:14:00;100340.91;;;5.52;54.70
81961;BME280;71462;50.650;6.888;2024-03-17T06:16:29;100336.91;;;5.66;54.51
81961;BME280;71462;50.650;6.888;2024-03-17T06:18:57;100331.53;;;5.90;54.03
81961;BME280;71462;50.650;6.888;2024-03-17T06:21:23;100334.00;;;6.08;53.84
81961;BME280;71462;50.650;6.888;2024-03-17T06:23:52;100336.53;;;6.32;53.69
81961;BME280;71462;50.650;6.888;2024-03-17T06:26:19;100333.09;;;6.48;53.35
81961;BME280;71462;50.650;6.888;2024-03-17T06:28:46;100336.78;;;6.64;53.64
81961;BME280;71462;50.650;6.888;2024-03-17T06:31:13;100327.28;;;6.84;52.94
81961;BME280;71462;50.650;6.888;2024-03-17T06:33:41;100332.63;;;7.06;51.93
81961;BME280;71462;50.650;6.888;2024-03-17T06:36:08;100333.91;;;7.04;51.79
81961;BME280;71462;50.650;6.888;2024-03-17T06:38:35;100332.41;;;7.30;51.58
81961;BME280;71462;50.650;6.888;2024-03-17T06:41:03;100328.13;;;7.50;51.40
81961;BME280;71462;50.650;6.888;2024-03-17T06:43:30;100332.16;;;7.75;51.01
81961;BME280;71462;50.650;6.888;2024-03-17T06:45:59;100317.66;;;7.66;50.88
81961;BME280;71462;50.650;6.888;2024-03-17T06:48:27;100320.91;;;7.95;50.93
81961;BME280;71462;50.650;6.888;2024-03-17T06:50:55;100311.53;;;8.14;50.90
81961;BME280;71462;50.650;6.888;2024-03-17T06:53:22;100304.34;;;8.14;51.25
81961;BME280;71462;50.650;6.888;2024-03-17T06:55:52;100303.34;;;7.94;52.28
81961;BME280;71462;50.650;6.888;2024-03-17T06:58:21;100304.56;;;8.40;51.54
81961;BME280;71462;50.650;6.888;2024-03-17T07:00:56;100301.63;;;8.78;51.04
81961;BME280;71462;50.650;6.888;2024-03-17T07:03:24;100303.84;;;8.97;50.35
81961;BME280;71462;50.650;6.888;2024-03-17T07:05:53;100310.06;;;9.13;50.23
81961;BME280;71462;50.650;6.888;2024-03-17T07:08:20;100303.25;;;9.32;49.62
81961;BME280;71462;50.650;6.888;2024-03-17T07:10:57;100299.31;;;9.55;49.49
81961;BME280;71462;50.650;6.888;2024-03-17T07:13:28;100302.28;;;9.63;49.23
81961;BME280;71462;50.650;6.888;2024-03-17T07:15:55;100303.66;;;9.76;49.04
81961;BME280;71462;50.650;6.888;2024-03-17T07:18:21;100298.34;;;9.86;48.49
81961;BME280;71462;50.650;6.888;2024-03-17T07:20:48;100294.31;;;9.74;49.01
81961;BME280;71462;50.650;6.888;2024-03-17T07:23:15;100296.94;;;9.63;48.74
81961;BME280;71462;50.650;6.888;2024-03-17T07:25:42;100291.91;;;9.77;48.78
81961;BME280;71462;50.650;6.888;2024-03-17T07:28:12;100304.72;;;9.70;48.83
81961;BME280;71462;50.650;6.888;2024-03-17T07:30:47;100302.38;;;9.99;49.45
81961;BME280;71462;50.650;6.888;2024-03-17T07:33:14;100303.44;;;10.28;49.01
81961;BME280;71462;50.650;6.888;2024-03-17T07:35:47;100301.84;;;10.38;48.96
81961;BME280;71462;50.650;6.888;2024-03-17T07:38:14;100296.53;;;10.48;45.29
81961;BME280;71462;50.650;6.888;2024-03-17T07:40:41;100299.44;;;10.61;45.49
81961;BME280;71462;50.650;6.888;2024-03-17T07:43:08;100301.56;;;10.75;45.28
81961;BME280;71462;50.650;6.888;2024-03-17T07:45:34;100306.91;;;10.85;45.92
81961;BME280;71462;50.650;6.888;2024-03-17T07:48:03;100306.91;;;10.80;45.89
81961;BME280;71462;50.650;6.888;2024-03-17T07:50:30;100309.28;;;10.97;46.16
81961;BME280;71462;50.650;6.888;2024-03-17T07:52:58;100303.66;;;10.93;44.85
81961;BME280;71462;50.650;6.888;2024-03-17T07:55:25;100312.47;;;11.04;45.35
81961;BME280;71462;50.650;6.888;2024-03-17T07:57:53;100319.41;;;11.15;44.75
81961;BME280;71462;50.650;6.888;2024-03-17T08:00:20;100320.47;;;11.14;44.59
81961;BME280;71462;50.650;6.888;2024-03-17T08:02:48;100324.84;;;10.74;45.12
81961;BME280;71462;50.650;6.888;2024-03-17T08:05:16;100318.91;;;10.92;45.71
81961;BME280;71462;50.650;6.888;2024-03-17T08:07:43;100310.59;;;11.09;45.02
81961;BME280;71462;50.650;6.888;2024-03-17T08:10:10;100307.38;;;11.12;44.69
81961;BME280;71462;50.650;6.888;2024-03-17T08:12:37;100308.66;;;11.25;44.36
81961;BME280;71462;50.650;6.888;2024-03-17T08:15:05;100312.66;;;11.27;44.54
81961;BME280;71462;50.650;6.888;2024-03-17T08:17:31;100312.94;;;11.31;44.68
81961;BME280;71462;50.650;6.888;2024-03-17T08:19:58;100311.81;;;11.42;44.77
81961;BME280;71462;50.650;6.888;2024-03-17T08:22:26;100312.91;;;11.36;44.35
81961;BME280;71462;50.650;6.888;2024-03-17T08:24:53;100312.41;;;11.29;44.96
81961;BME280;71462;50.650;6.888;2024-03-17T08:27:20;100310.53;;;11.19;45.62
81961;BME280;71462;50.650;6.888;2024-03-17T08:29:48;100302.53;;;11.14;45.63
81961;BME280;71462;50.650;6.888;2024-03-17T08:32:15;100290.34;;;10.62;46.63
81961;BME280;71462;50.650;6.888;2024-03-17T08:34:46;100288.47;;;10.63;47.36
81961;BME280;71462;50.650;6.888;2024-03-17T08:37:13;100287.94;;;10.71;46.74
81961;BME280;71462;50.650;6.888;2024-03-17T08:39:41;100291.09;;;10.99;46.58
81961;BME280;71462;50.650;6.888;2024-03-17T08:42:08;100288.56;;;11.27;46.92
81961;BME280;71462;50.650;6.888;2024-03-17T08:44:35;100284.59;;;11.20;46.84
81961;BME280;71462;50.650;6.888;2024-03-17T08:47:02;100283.47;;;11.31;46.75
81961;BME280;71462;50.650;6.888;2024-03-17T08:49:29;100285.53;;;11.49;45.64
81961;BME280;71462;50.650;6.888;2024-03-17T08:51:56;100280.75;;;11.41;45.50
81961;BME280;71462;50.650;6.888;2024-03-17T08:54:23;100279.06;;;11.61;46.12
81961;BME280;71462;50.650;6.888;2024-03-17T08:56:51;100275.38;;;11.46;44.19
81961;BME280;71462;50.650;6.888;2024-03-17T08:59:17;100268.06;;;11.67;44.52
81961;BME280;71462;50.650;6.888;2024-03-17T09:01:46;100274.22;;;11.57;44.98
81961;BME280;71462;50.650;6.888;2024-03-17T09:06:48;100261.13;;;11.56;45.77
81961;BME280;71462;50.650;6.888;2024-03-17T09:09:20;100259.50;;;11.55;45.15
81961;BME280;71462;50.650;6.888;2024-03-17T09:12:21;100260.38;;;11.90;44.87
81961;BME280;71462;50.650;6.888;2024-03-17T09:14:48;100264.09;;;11.49;45.72
81961;BME280;71462;50.650;6.888;2024-03-17T09:17:17;100270.22;;;11.60;45.99
81961;BME280;71462;50.650;6.888;2024-03-17T09:19:48;100279.66;;;11.92;44.15
81961;BME280;71462;50.650;6.888;2024-03-17T09:22:26;100274.13;;;12.17;44.52
81961;BME280;71462;50.650;6.888;2024-03-17T09:25:09;100264.59;;;12.35;43.52
81961;BME280;71462;50.650;6.888;2024-03-17T09:27:39;100275.03;;;12.65;43.55
81961;BME280;71462;50.650;6.888;2024-03-17T09:30:09;100274.53;;;12.58;43.10
81961;BME280;71462;50.650;6.888;2024-03-17T09:32:42;100275.88;;;12.61;43.89
81961;BME280;71462;50.650;6.888;2024-03-17T09:35:26;100263.94;;;12.77;42.84
81961;BME280;71462;50.650;6.888;2024-03-17T09:37:57;100273.53;;;13.07;42.79
81961;BME280;71462;50.650;6.888;2024-03-17T09:40:27;100272.03;;;12.72;44.17
81961;BME280;71462;50.650;6.888;2024-03-17T09:43:02;100272.63;;;12.64;44.82
81961;BME280;71462;50.650;6.888;2024-03-17T09:45:38;100271.63;;;12.55;44.31
81961;BME280;71462;50.650;6.888;2024-03-17T09:48:14;100273.78;;;11.95;48.02
81961;BME280;71462;50.650;6.888;2024-03-17T09:50:59;100276.38;;;12.05;47.22
81961;BME280;71462;50.650;6.888;2024-03-17T09:53:32;100274.47;;;11.71;48.52
81961;BME280;71462;50.650;6.888;2024-03-17T09:56:25;100270.97;;;11.71;48.17
81961;BME280;71462;50.650;6.888;2024-03-17T09:59:02;100268.84;;;11.68;47.82
81961;BME280;71462;50.650;6.888;2024-03-17T10:02:18;100270.41;;;11.74;48.63
81961;BME280;71462;50.650;6.888;2024-03-17T10:04:43;100277.41;;;11.70;50.22
81961;BME280;71462;50.650;6.888;2024-03-17T10:07:40;100276.56;;;11.74;50.52
81961;BME280;71462;50.650;6.888;2024-03-17T10:10:37;100277.06;;;11.22;50.90
81961;BME280;71462;50.650;6.888;2024-03-17T10:13:15;100281.53;;;11.47;50.17
81961;BME280;71462;50.650;6.888;2024-03-17T10:19:33;100276.75;;;11.88;48.93
81961;BME280;71462;50.650;6.888;2024-03-17T10:22:13;100275.06;;;11.58;49.75
81961;BME280;71462;50.650;6.888;2024-03-17T10:25:17;100278.41;;;11.79;51.01
81961;BME280;71462;50.650;6.888;2024-03-17T10:31:41;100273.41;;;11.67;50.70
81961;BME280;71462;50.650;6.888;2024-03-17T10:35:24;100277.56;;;11.39;51.86
81961;BME280;71462;50.650;6.888;2024-03-17T10:38:02;100268.25;;;11.21;51.31
81961;BME280;71462;50.650;6.888;2024-03-17T10:40:34;100276.13;;;11.62;52.08
81961;BME280;71462;50.650;6.888;2024-03-17T10:43:16;100272.66;;;12.01;49.99
81961;BME280;71462;50.650;6.888;2024-03-17T10:45:52;100274.31;;;12.26;49.47
81961;BME280;71462;50.650;6.888;2024-03-17T10:48:20;100269.25;;;12.53;47.37
81961;BME280;71462;50.650;6.888;2024-03-17T10:50:53;100266.19;;;12.65;46.66
81961;BME280;71462;50.650;6.888;2024-03-17T10:53:25;100269.00;;;12.78;45.41
81961;BME280;71462;50.650;6.888;2024-03-17T10:56:03;100258.44;;;12.87;44.54
81961;BME280;71462;50.650;6.888;2024-03-17T10:58:34;100261.97;;;13.49;44.23
81961;BME280;71462;50.650;6.888;2024-03-17T11:01:03;100265.03;;;13.42;41.61
81961;BME280;71462;50.650;6.888;2024-03-17T11:03:34;100261.47;;;14.36;42.03
81961;BME280;71462;50.650;6.888;2024-03-17T11:06:03;100266.94;;;13.98;42.02
81961;BME280;71462;50.650;6.888;2024-03-17T11:08:35;100265.16;;;14.08;41.11
81961;BME280;71462;50.650;6.888;2024-03-17T11:11:06;100270.22;;;13.15;42.48
81961;BME280;71462;50.650;6.888;2024-03-17T11:13:36;100262.81;;;13.68;43.15
81961;BME280;71462;50.650;6.888;2024-03-17T11:16:25;100267.13;;;14.81;41.25
81961;BME280;71462;50.650;6.888;2024-03-17T11:19:05;100260.06;;;15.12;42.97
81961;BME280;71462;50.650;6.888;2024-03-17T11:21:33;100263.00;;;15.52;42.48
81961;BME280;71462;50.650;6.888;2024-03-17T11:24:06;100264.28;;;15.68;40.59
81961;BME280;71462;50.650;6.888;2024-03-17T11:26:47;100259.22;;;15.53;40.45
81961;BME280;71462;50.650;6.888;2024-03-17T11:29:26;100259.53;;;15.38;41.43
81961;BME280;71462;50.650;6.888;2024-03-17T11:31:54;100261.03;;;15.16;42.29
81961;BME280;71462;50.650;6.888;2024-03-17T11:34:35;100258.75;;;15.10;43.12
81961;BME280;71462;50.650;6.888;2024-03-17T11:41:35;100254.91;;;15.52;40.66
81961;BME280;71462;50.650;6.888;2024-03-17T11:44:16;100249.44;;;15.79;38.08
81961;BME280;71462;50.650;6.888;2024-03-17T11:46:53;100247.75;;;16.06;37.42
81961;BME280;71462;50.650;6.888;2024-03-17T11:49:23;100249.69;;;16.14;39.52
81961;BME280;71462;50.650;6.888;2024-03-17T11:51:51;100246.41;;;16.17;40.31
81961;BME280;71462;50.650;6.888;2024-03-17T11:54:20;100243.56;;;16.22;37.92
81961;BME280;71462;50.650;6.888;2024-03-17T11:56:48;100243.00;;;16.11;36.94
81961;BME280;71462;50.650;6.888;2024-03-17T11:59:17;100239.81;;;16.32;37.91
81961;BME280;71462;50.650;6.888;2024-03-17T12:01:44;100236.00;;;16.33;36.05
81961;BME280;71462;50.650;6.888;2024-03-17T12:04:13;100231.22;;;16.52;36.65
81961;BME280;71462;50.650;6.888;2024-03-17T12:06:44;100231.63;;;16.76;35.83
81961;BME280;71462;50.650;6.888;2024-03-17T12:09:16;100224.34;;;16.86;35.82
81961;BME280;71462;50.650;6.888;2024-03-17T12:11:46;100224.69;;;16.22;35.97
81961;BME280;71462;50.650;6.888;2024-03-17T12:14:19;100218.56;;;16.70;35.70
81961;BME280;71462;50.650;6.888;2024-03-17T12:16:48;100216.06;;;16.42;35.63
81961;BME280;71462;50.650;6.888;2024-03-17T12:19:16;100207.28;;;15.83;36.60
81961;BME280;71462;50.650;6.888;2024-03-17T12:21:44;100206.50;;;15.24;38.71
81961;BME280;71462;50.650;6.888;2024-03-17T12:24:15;100200.25;;;15.38;37.87
81961;BME280;71462;50.650;6.888;2024-03-17T12:26:42;100200.56;;;15.72;36.98
81961;BME280;71462;50.650;6.888;2024-03-17T12:29:24;100195.75;;;16.14;37.20
81961;BME280;71462;50.650;6.888;2024-03-17T12:31:54;100187.75;;;16.31;36.16
81961;BME280;71462;50.650;6.888;2024-03-17T12:34:24;100191.09;;;16.68;34.71
81961;BME280;71462;50.650;6.888;2024-03-17T12:36:52;100191.06;;;16.59;33.46
81961;BME280;71462;50.650;6.888;2024-03-17T12:39:21;100187.56;;;15.97;32.56
81961;BME280;71462;50.650;6.888;2024-03-17T12:42:04;100184.66;;;16.46;32.13
81961;BME280;71462;50.650;6.888;2024-03-17T12:44:34;100182.16;;;16.19;30.89
81961;BME280;71462;50.650;6.888;2024-03-17T12:47:02;100173.97;;;15.57;30.43
81961;BME280;71462;50.650;6.888;2024-03-17T12:49:31;100161.00;;;16.12;31.67
81961;BME280;71462;50.650;6.888;2024-03-17T12:51:57;100167.75;;;16.72;31.45
81961;BME280;71462;50.650;6.888;2024-03-17T12:54:27;100158.06;;;16.71;31.32
81961;BME280;71462;50.650;6.888;2024-03-17T12:57:05;100156.81;;;16.77;31.78
81961;BME280;71462;50.650;6.888;2024-03-17T12:59:52;100144.47;;;16.93;32.50
81961;BME280;71462;50.650;6.888;2024-03-17T13:02:41;100142.25;;;16.95;33.04
81961;BME280;71462;50.650;6.888;2024-03-17T13:05:18;100139.88;;;17.20;32.81
81961;BME280;71462;50.650;6.888;2024-03-17T13:07:50;100134.78;;;16.92;32.41
81961;BME280;71462;50.650;6.888;2024-03-17T13:10:22;100137.63;;;17.13;32.79
81961;BME280;71462;50.650;6.888;2024-03-17T13:12:59;100135.28;;;17.29;32.37
81961;BME280;71462;50.650;6.888;2024-03-17T13:15:28;100134.34;;;17.25;33.82
81961;BME280;71462;50.650;6.888;2024-03-17T13:17:57;100132.81;;;16.75;37.10
81961;BME280;71462;50.650;6.888;2024-03-17T13:20:27;100125.34;;;16.72;36.70
81961;BME280;71462;50.650;6.888;2024-03-17T13:22:57;100120.09;;;16.50;36.63